Currently N/A°F in Beaumont, California, USA
N/A°F Alert
N/A°F / N/A°F
N/A
N/A
Thursday, July 20, 2017 5:41 AM PDT

Beaumont, California Weather Summary
Last 36 Hours

Temperature Winds Hourly Humidity Dewpoint
Time Report Norm Report Norm Max Gusts Precip. Rpt. Norm Rpt. Norm Pressure
1Sun 08:11 PM  75.6°F  76°F  calm  3 mph  3 mph  0.00"  55%  46%  58°F  53°F  29.73"
Sun 08:00 PM  75.9°F  76°F  calm  4 mph  12 mph  0.00"  55%  46%  58°F  53°F  29.72"
Sun 07:00 PM  79.5°F  80°F  3 mph SW  3 mph  12 mph  0.00"  50%  41%  59°F  53°F  29.70"
Sun 06:00 PM  84.9°F  83°F  4 mph SW  4 mph  13 mph  0.00"  42%  36%  59°F  53°F  29.69"
Sun 05:00 PM  88.3°F  85°F  4 mph SW  4 mph  13 mph  0.00"  37%  34%  58°F  52°F  29.70"
Sun 04:00 PM  91.9°F  86°F  4 mph W  4 mph  13 mph  0.00"  32%  32%  57°F  52°F  29.70"
Sun 03:00 PM  94.3°F  86°F  3 mph S  5 mph  12 mph  0.00"  23%  32%  50°F  52°F  29.72"
2Sun 02:59 PM  94.3°F  86°F  5 mph S  5 mph  12 mph  ----  24%  32%  51°F  52°F  29.72"
Sun 02:00 PM  92.1°F  86°F  6 mph S  4 mph  13 mph  0.00"  31%  34%  56°F  53°F  29.74"
Sun 01:00 PM  88.9°F  85°F  5 mph E  5 mph  15 mph  0.00"  35%  35%  57°F  53°F  29.75"
Sun 12:00 PM  88.0°F  83°F  6 mph SE  5 mph  14 mph  0.00"  39%  37%  59°F  54°F  29.76"
Sun 11:00 AM  85.3°F  81°F  4 mph SE  4 mph  12 mph  0.00"  42%  40%  59°F  53°F  29.76"
Sun 10:00 AM  82.9°F  79°F  3 mph SE  4 mph  8 mph  0.00"  43%  41%  57°F  52°F  29.77"
Sun 09:00 AM  79.2°F  76°F  2 mph S  3 mph  8 mph  0.00"  46%  43%  56°F  52°F  29.78"
Sun 08:00 AM  76.5°F  73°F  2 mph S  2 mph  3 mph  0.00"  55%  48%  59°F  52°F  29.78"
Sun 07:00 AM  73.8°F  70°F  calm  1 mph  3 mph  0.00"  52%  51%  54°F  50°F  29.77"
Sun 06:00 AM  72.0°F  68°F  2 mph W  2 mph  3 mph  0.00"  55%  52%  54°F  49°F  29.76"
Sun 05:00 AM  72.0°F  67°F  calm  2 mph  12 mph  0.00"  58%  53%  56°F  49°F  29.75"
Sun 04:00 AM  74.3°F  67°F  5 mph E  2 mph  14 mph  0.00"  60%  53%  59°F  49°F  29.75"
Sun 03:00 AM  75.6°F  67°F  7 mph NE  2 mph  15 mph  0.00"  56%  54%  58°F  49°F  29.76"
Sun 02:00 AM  76.5°F  67°F  5 mph E  2 mph  16 mph  0.00"  47%  54%  54°F  50°F  29.77"
Sun 01:00 AM  75.7°F  67°F  4 mph NE  1 mph  7 mph  0.00"  34%  55%  44°F  50°F  29.79"
3Sun 12:00 AM  71.1°F  68°F  calm  1 mph  3 mph  0.00"  52%  56%  52°F  51°F  29.78"
Sat 11:00 PM  71.6°F  69°F  1 mph SE  1 mph  3 mph  0.00"  57%  54%  55°F  51°F  29.79"
Sat 10:00 PM  74.3°F  71°F  2 mph E  2 mph  9 mph  0.00"  54%  51%  56°F  52°F  29.80"
Sat 09:00 PM  80.2°F  74°F  1 mph SW  3 mph  12 mph  0.00"  39%  48%  52°F  52°F  29.78"
Sat 08:00 PM  78.6°F  76°F  6 mph NW  3 mph  14 mph  0.00"  49%  45%  57°F  53°F  29.77"
Sat 07:00 PM  83.7°F  80°F  5 mph W  3 mph  13 mph  0.00"  40%  41%  56°F  53°F  29.77"
Sat 06:00 PM  89.2°F  83°F  4 mph NW  4 mph  13 mph  0.00"  31%  36%  54°F  53°F  29.76"
Sat 05:00 PM  92.3°F  85°F  2 mph W  4 mph  14 mph  0.00"  25%  33%  50°F  52°F  29.77"
Sat 04:00 PM  94.6°F  86°F  7 mph SW  4 mph  12 mph  0.00"  19%  32%  45°F  52°F  29.78"
Sat 03:00 PM  94.6°F  86°F  5 mph N  5 mph  13 mph  0.00"  17%  32%  42°F  52°F  29.80"
Sat 02:00 PM  94.3°F  86°F  2 mph SW  4 mph  12 mph  0.00"  22%  33%  48°F  53°F  29.81"
Sat 01:00 PM  93.2°F  84°F  1 mph SW  5 mph  12 mph  0.00"  26%  35%  52°F  53°F  29.83"
Sat 12:00 PM  91.8°F  83°F  4 mph S  5 mph  13 mph  0.00"  24%  37%  49°F  53°F  29.84"
Sat 11:00 AM  90.3°F  81°F  7 mph SE  4 mph  9 mph  0.00"  29%  39%  53°F  53°F  29.85"
Sat 10:00 AM  87.3°F  79°F  2 mph SW  4 mph  10 mph  0.00"  28%  40%  49°F  52°F  29.84"
Sat 09:00 AM  85.8°F  76°F  2 mph SW  3 mph  7 mph  0.00"  27%  44%  47°F  52°F  29.85"

  1. Current weather data. No green row appears if the current weather data is also the high or low for the current day.
  2. High temperature for the current day.
  3. Low temperature for the current day.

The Beaumont, California weather pages are a service of WeatherCurrents. Cherry Valley is located in northern Riverside County, California, a community of the northern part of Beaumont, along the Interstate 10 highway, in the San Gorgonio pass area, between the communities of Calimesa, Banning.
Copyright ©Thu Jul 20 05:41:44 PDT 2017  WeatherCurrents. All rights reserved. - Submit questions and comments - Privacy Policy

This page automatically refreshes every 10 minutes.